Aglaia — V7CW5 — position and weather

sailwx.info

Track history (hours):
 
Tides and Currents Weather Stations Pressure Air Temp Water Temp Dewpoint Dewpoint Depression Visibility Wind Speed Wind Dir Waves Ship Positions

Aglaia

Last reported at 2018-Apr-20 01:14 UTC. Time now 2018-Apr-20 14:37 UTC.
Position N 37°11' W 009°38'.

Length 158.7 m; beam 25.6 m; draft 9.2 m.

Type: Cargo ship. MMSI: 538003372.

Date/timePositionNaut miles runAvg speedWind from/ knotsBaromVisibWave heightAir tempDewpointWater temp
2018-Apr-20 01:14N 37°11' W 009°38'417.7
2018-Apr-20 01:00N 37°15' W 009°39'918.0
2018-Apr-20 00:30N 37°24' W 009°41'917.9
2018-Apr-20 00:01N 37°33' W 009°44'1118.0
2018-Apr-19 23:24N 37°43' W 009°47'1818.1
2018-Apr-19 22:24N 38°01' W 009°52'718.0
2018-Apr-19 22:00N 38°08' W 009°55'1018.1
2018-Apr-19 21:28N 38°17' W 009°58'818.1
2018-Apr-19 21:00N 38°25' W 010°01'2618.1
2018-Apr-19 19:33N 38°51' W 010°06'218.7
2018-Apr-19 19:25N 38°54' W 010°06'818.6
2018-Apr-19 19:00N 39°01' W 010°03'1718.1
2018-Apr-19 18:04N 39°18' W 009°57'10118.2
2018-Apr-19 12:28N 40°48' W 008°57'1018.2
2018-Apr-19 11:55N 40°57' W 008°50'718.0
2018-Apr-19 11:30N 41°04' W 008°47'714.8
2018-Apr-19 11:00N 41°10' W 008°42'1 1.3
2018-Apr-19 10:29N 41°11' W 008°42'0 0.0
2018-Apr-19 09:59N 41°11' W 008°42'0 0.0
2018-Apr-19 09:26N 41°11' W 008°42'0 0.0
2018-Apr-19 08:59N 41°11' W 008°42'0 0.0
2018-Apr-19 08:29N 41°11' W 008°42'0 0.0
2018-Apr-19 08:00N 41°11' W 008°42'0 0.0
2018-Apr-19 07:29N 41°11' W 008°42'0 0.0
2018-Apr-19 06:59N 41°11' W 008°42'0 0.0
2018-Apr-19 06:29N 41°11' W 008°42'0 0.0
2018-Apr-19 05:59N 41°11' W 008°42'0 0.0
2018-Apr-19 05:30N 41°11' W 008°42'0 0.0
2018-Apr-19 04:59N 41°11' W 008°42'0 0.0
2018-Apr-19 04:29N 41°11' W 008°42'0 0.0
2018-Apr-19 04:00N 41°11' W 008°42'0 0.0
2018-Apr-19 03:29N 41°11' W 008°42'0 0.0
2018-Apr-19 02:59N 41°11' W 008°42'0 0.0
2018-Apr-19 02:29N 41°11' W 008°42'0 0.0
2018-Apr-19 02:00N 41°11' W 008°42'0 0.0
2018-Apr-19 01:29N 41°11' W 008°42'0 0.0
2018-Apr-19 00:59N 41°11' W 008°42'0 0.0
2018-Apr-19 00:29N 41°11' W 008°42'0 0.0
2018-Apr-19 00:00N 41°11' W 008°42'1 1.3
2018-Apr-18 23:30N 41°11' W 008°42'2 3.7
2018-Apr-18 23:00N 41°10' W 008°45'2 3.9
2018-Apr-18 22:31N 41°11' W 008°46'66414.6
2018-Apr-17 01:00N 52°05' W 005°53'611.7
2018-Apr-17 00:30N 52°11' W 005°52'611.6
2018-Apr-17 00:00N 52°17' W 005°51'611.9
2018-Apr-16 23:30N 52°22' W 005°51'2014.4
2018-Apr-16 22:06N 52°43' W 005°50'814.8
2018-Apr-16 21:35N 52°50' W 005°52'314.4
2018-Apr-16 21:21N 52°54' W 005°52'514.1
2018-Apr-16 21:00N 52°58' W 005°54'713.3
2018-Apr-16 20:30N 53°05' W 005°56'714.0
2018-Apr-16 20:00N 53°12' W 005°59'913.4
2018-Apr-16 19:19N 53°20' W 006°05'410.0
2018-Apr-16 18:57N 53°21' W 006°12'1 0.1
2018-Apr-16 13:43N 53°21' W 006°13'0 0.0
2018-Apr-16 11:55N 53°21' W 006°13'0 0.0
2018-Apr-16 08:16N 53°21' W 006°13'0 0.0
2018-Apr-16 07:50N 53°21' W 006°13'0 0.5
2018-Apr-16 07:30N 53°21' W 006°13'4 8.3
2018-Apr-16 06:58N 53°20' W 006°05'811.7
2018-Apr-16 06:17N 53°23' W 005°53'412.9
2018-Apr-16 05:59N 53°24' W 005°47'5814.9
2018-Apr-16 02:05N 53°34' W 004°11'217.9
2018-Apr-16 02:00N 53°34' W 004°08'917.7
2018-Apr-16 01:30N 53°34' W 003°53'917.3
2018-Apr-16 01:00N 53°33' W 003°38'917.4
2018-Apr-16 00:31N 53°33' W 003°24'713.2
2018-Apr-16 00:00N 53°31' W 003°13'612.2
2018-Apr-15 23:30N 53°29' W 003°04'2 4.7
2018-Apr-15 23:01N 53°27' W 003°01'0 0.5
2018-Apr-15 22:31N 53°27' W 003°01'0 0.6
2018-Apr-15 21:58N 53°28' W 003°01'0 0.0
2018-Apr-15 21:28N 53°28' W 003°01'0 0.0
2018-Apr-15 20:58N 53°28' W 003°01'0 0.0
2018-Apr-15 20:28N 53°28' W 003°01'0 0.0
2018-Apr-15 19:58N 53°28' W 003°01'0 0.0
2018-Apr-15 19:28N 53°28' W 003°01'0 0.0
2018-Apr-15 18:58N 53°28' W 003°01'0 0.0
2018-Apr-15 18:28N 53°28' W 003°01'0 0.0
2018-Apr-15 17:58N 53°28' W 003°01'0 0.0
2018-Apr-15 17:28N 53°28' W 003°01'0 0.0
2018-Apr-15 16:58N 53°28' W 003°01'0 0.0
2018-Apr-15 16:28N 53°28' W 003°01'0 0.0
2018-Apr-15 15:55N 53°28' W 003°01'0 0.0
2018-Apr-15 15:28N 53°28' W 003°01'0 0.0
2018-Apr-15 14:55N 53°28' W 003°01'0 0.0
2018-Apr-15 14:28N 53°28' W 003°01'0 0.0
2018-Apr-15 13:58N 53°28' W 003°01'0 0.0
2018-Apr-15 13:28N 53°28' W 003°01'0 0.0
2018-Apr-15 12:58N 53°28' W 003°01'0 0.0
2018-Apr-15 12:25N 53°28' W 003°01'0 0.0
2018-Apr-15 11:58N 53°28' W 003°01'0 0.0
2018-Apr-15 11:28N 53°28' W 003°01'0 0.0
2018-Apr-15 10:58N 53°28' W 003°01'0 0.0
2018-Apr-15 10:25N 53°28' W 003°01'0 0.0
2018-Apr-15 09:58N 53°28' W 003°01'0 0.4
2018-Apr-15 09:31N 53°28' W 003°01'0 0.7
2018-Apr-15 09:00N 53°27' W 003°01'0 0.6
2018-Apr-15 08:30N 53°27' W 003°01'0 0.4
2018-Apr-15 08:00N 53°27' W 003°01'0 0.9
2018-Apr-15 07:30N 53°27' W 003°02'5 9.6
2018-Apr-15 07:00N 53°31' W 003°06'510.5
2018-Apr-15 06:30N 53°31' W 003°15'510.1
2018-Apr-15 06:00N 53°31' W 003°24'0 0.8
2018-Apr-15 05:30N 53°31' W 003°23'713.3
2018-Apr-15 05:00N 53°31' W 003°34'713.2
2018-Apr-15 04:30N 53°31' W 003°45'612.3
2018-Apr-15 04:00N 53°30' W 003°55'5 9.9
2018-Apr-15 03:29N 53°30' W 004°04'  
2018-Apr-12 13:15N 39°27' W 009°43'415.1
2018-Apr-12 13:00N 39°23' W 009°44'815.4
2018-Apr-12 12:30N 39°16' W 009°45'815.2
2018-Apr-12 12:00N 39°08' W 009°47'815.1
2018-Apr-12 11:30N 39°01' W 009°49'815.1
2018-Apr-12 11:00N 38°54' W 009°51'815.1
2018-Apr-12 10:30N 38°46' W 009°51'714.7
2018-Apr-12 10:00N 38°39' W 009°51'714.7
2018-Apr-12 09:30N 38°32' W 009°48'714.7
2018-Apr-12 09:01N 38°24' W 009°46'815.6
2018-Apr-12 08:30N 38°17' W 009°44'815.6
2018-Apr-12 08:01N 38°09' W 009°42'815.7
2018-Apr-12 07:30N 38°02' W 009°39'815.5
2018-Apr-12 07:01N 37°54' W 009°37'815.4
2018-Apr-12 06:31N 37°47' W 009°35'815.6
2018-Apr-12 06:00N 37°39' W 009°33'21513.9
2018-Apr-11 14:34N 35°58' W 005°36'114.6
2018-Apr-11 14:28N 35°58' W 005°35'714.6
2018-Apr-11 14:00N 35°60' W 005°27'714.8
2018-Apr-11 13:30N 36°01' W 005°18'21613.5
2018-Apr-10 21:34N 37°13' W 001°04'116.2
2018-Apr-10 21:29N 37°14' W 001°03'816.1
2018-Apr-10 20:58N 37°19' W 000°55'716.0
2018-Apr-10 20:30N 37°24' W 000°48'815.4
2018-Apr-10 20:00N 37°29' W 000°41'815.7
2018-Apr-10 19:30N 37°35' W 000°33'815.7
2018-Apr-10 19:00N 37°41' W 000°28'1715.4
2018-Apr-10 17:54N 37°56' W 000°16'614.9
2018-Apr-10 17:30N 38°00' W 000°12'  
Track history (hours):
 
Tides and Currents Weather Stations Pressure Air Temp Water Temp Dewpoint Dewpoint Depression Visibility Wind Speed Wind Dir Waves Ship Positions

Aglaia

Last reported at 2018-Apr-20 01:14 UTC. Time now 2018-Apr-20 14:37 UTC.
Position N 37°11' W 009°38'.

Length 158.7 m; beam 25.6 m; draft 9.2 m.

Type: Cargo ship. MMSI: 538003372.

Date/timePositionNaut miles runAvg speedWind from/ knotsBaromVisibWave heightAir tempDewpointWater temp
2018-Apr-20 01:14N 37°11' W 009°38'417.7
2018-Apr-20 01:00N 37°15' W 009°39'918.0
2018-Apr-20 00:30N 37°24' W 009°41'917.9
2018-Apr-20 00:01N 37°33' W 009°44'1118.0
2018-Apr-19 23:24N 37°43' W 009°47'1818.1
2018-Apr-19 22:24N 38°01' W 009°52'718.0
2018-Apr-19 22:00N 38°08' W 009°55'1018.1
2018-Apr-19 21:28N 38°17' W 009°58'818.1
2018-Apr-19 21:00N 38°25' W 010°01'2618.1
2018-Apr-19 19:33N 38°51' W 010°06'218.7
2018-Apr-19 19:25N 38°54' W 010°06'818.6
2018-Apr-19 19:00N 39°01' W 010°03'1718.1
2018-Apr-19 18:04N 39°18' W 009°57'10118.2
2018-Apr-19 12:28N 40°48' W 008°57'1018.2
2018-Apr-19 11:55N 40°57' W 008°50'718.0
2018-Apr-19 11:30N 41°04' W 008°47'714.8
2018-Apr-19 11:00N 41°10' W 008°42'1 1.3
2018-Apr-19 10:29N 41°11' W 008°42'0 0.0
2018-Apr-19 09:59N 41°11' W 008°42'0 0.0
2018-Apr-19 09:26N 41°11' W 008°42'0 0.0
2018-Apr-19 08:59N 41°11' W 008°42'0 0.0
2018-Apr-19 08:29N 41°11' W 008°42'0 0.0
2018-Apr-19 08:00N 41°11' W 008°42'0 0.0
2018-Apr-19 07:29N 41°11' W 008°42'0 0.0
2018-Apr-19 06:59N 41°11' W 008°42'0 0.0
2018-Apr-19 06:29N 41°11' W 008°42'0 0.0
2018-Apr-19 05:59N 41°11' W 008°42'0 0.0
2018-Apr-19 05:30N 41°11' W 008°42'0 0.0
2018-Apr-19 04:59N 41°11' W 008°42'0 0.0
2018-Apr-19 04:29N 41°11' W 008°42'0 0.0
2018-Apr-19 04:00N 41°11' W 008°42'0 0.0
2018-Apr-19 03:29N 41°11' W 008°42'0 0.0
2018-Apr-19 02:59N 41°11' W 008°42'0 0.0
2018-Apr-19 02:29N 41°11' W 008°42'0 0.0
2018-Apr-19 02:00N 41°11' W 008°42'0 0.0
2018-Apr-19 01:29N 41°11' W 008°42'0 0.0
2018-Apr-19 00:59N 41°11' W 008°42'0 0.0
2018-Apr-19 00:29N 41°11' W 008°42'0 0.0
2018-Apr-19 00:00N 41°11' W 008°42'1 1.3
2018-Apr-18 23:30N 41°11' W 008°42'2 3.7
2018-Apr-18 23:00N 41°10' W 008°45'2 3.9
2018-Apr-18 22:31N 41°11' W 008°46'66414.6
2018-Apr-17 01:00N 52°05' W 005°53'611.7
2018-Apr-17 00:30N 52°11' W 005°52'611.6
2018-Apr-17 00:00N 52°17' W 005°51'611.9
2018-Apr-16 23:30N 52°22' W 005°51'2014.4
2018-Apr-16 22:06N 52°43' W 005°50'814.8
2018-Apr-16 21:35N 52°50' W 005°52'314.4
2018-Apr-16 21:21N 52°54' W 005°52'514.1
2018-Apr-16 21:00N 52°58' W 005°54'713.3
2018-Apr-16 20:30N 53°05' W 005°56'714.0
2018-Apr-16 20:00N 53°12' W 005°59'913.4
2018-Apr-16 19:19N 53°20' W 006°05'410.0
2018-Apr-16 18:57N 53°21' W 006°12'1 0.1
2018-Apr-16 13:43N 53°21' W 006°13'0 0.0
2018-Apr-16 11:55N 53°21' W 006°13'0 0.0
2018-Apr-16 08:16N 53°21' W 006°13'0 0.0
2018-Apr-16 07:50N 53°21' W 006°13'0 0.5
2018-Apr-16 07:30N 53°21' W 006°13'4 8.3
2018-Apr-16 06:58N 53°20' W 006°05'811.7
2018-Apr-16 06:17N 53°23' W 005°53'412.9
2018-Apr-16 05:59N 53°24' W 005°47'5814.9
2018-Apr-16 02:05N 53°34' W 004°11'217.9
2018-Apr-16 02:00N 53°34' W 004°08'917.7
2018-Apr-16 01:30N 53°34' W 003°53'917.3
2018-Apr-16 01:00N 53°33' W 003°38'917.4
2018-Apr-16 00:31N 53°33' W 003°24'713.2
2018-Apr-16 00:00N 53°31' W 003°13'612.2
2018-Apr-15 23:30N 53°29' W 003°04'2 4.7
2018-Apr-15 23:01N 53°27' W 003°01'0 0.5
2018-Apr-15 22:31N 53°27' W 003°01'0 0.6
2018-Apr-15 21:58N 53°28' W 003°01'0 0.0
2018-Apr-15 21:28N 53°28' W 003°01'0 0.0
2018-Apr-15 20:58N 53°28' W 003°01'0 0.0
2018-Apr-15 20:28N 53°28' W 003°01'0 0.0
2018-Apr-15 19:58N 53°28' W 003°01'0 0.0
2018-Apr-15 19:28N 53°28' W 003°01'0 0.0
2018-Apr-15 18:58N 53°28' W 003°01'0 0.0
2018-Apr-15 18:28N 53°28' W 003°01'0 0.0
2018-Apr-15 17:58N 53°28' W 003°01'0 0.0
2018-Apr-15 17:28N 53°28' W 003°01'0 0.0
2018-Apr-15 16:58N 53°28' W 003°01'0 0.0
2018-Apr-15 16:28N 53°28' W 003°01'0 0.0
2018-Apr-15 15:55N 53°28' W 003°01'0 0.0
2018-Apr-15 15:28N 53°28' W 003°01'0 0.0
2018-Apr-15 14:55N 53°28' W 003°01'0 0.0
2018-Apr-15 14:28N 53°28' W 003°01'0 0.0
2018-Apr-15 13:58N 53°28' W 003°01'0 0.0
2018-Apr-15 13:28N 53°28' W 003°01'0 0.0
2018-Apr-15 12:58N 53°28' W 003°01'0 0.0
2018-Apr-15 12:25N 53°28' W 003°01'0 0.0
2018-Apr-15 11:58N 53°28' W 003°01'0 0.0
2018-Apr-15 11:28N 53°28' W 003°01'0 0.0
2018-Apr-15 10:58N 53°28' W 003°01'0 0.0
2018-Apr-15 10:25N 53°28' W 003°01'0 0.0
2018-Apr-15 09:58N 53°28' W 003°01'0 0.4
2018-Apr-15 09:31N 53°28' W 003°01'0 0.7
2018-Apr-15 09:00N 53°27' W 003°01'0 0.6
2018-Apr-15 08:30N 53°27' W 003°01'0 0.4
2018-Apr-15 08:00N 53°27' W 003°01'0 0.9
2018-Apr-15 07:30N 53°27' W 003°02'5 9.6
2018-Apr-15 07:00N 53°31' W 003°06'510.5
2018-Apr-15 06:30N 53°31' W 003°15'510.1
2018-Apr-15 06:00N 53°31' W 003°24'0 0.8
2018-Apr-15 05:30N 53°31' W 003°23'713.3
2018-Apr-15 05:00N 53°31' W 003°34'713.2
2018-Apr-15 04:30N 53°31' W 003°45'612.3
2018-Apr-15 04:00N 53°30' W 003°55'5 9.9
2018-Apr-15 03:29N 53°30' W 004°04'  
2018-Apr-12 13:15N 39°27' W 009°43'415.1
2018-Apr-12 13:00N 39°23' W 009°44'815.4
2018-Apr-12 12:30N 39°16' W 009°45'815.2
2018-Apr-12 12:00N 39°08' W 009°47'815.1
2018-Apr-12 11:30N 39°01' W 009°49'815.1
2018-Apr-12 11:00N 38°54' W 009°51'815.1
2018-Apr-12 10:30N 38°46' W 009°51'714.7
2018-Apr-12 10:00N 38°39' W 009°51'714.7
2018-Apr-12 09:30N 38°32' W 009°48'714.7
2018-Apr-12 09:01N 38°24' W 009°46'815.6
2018-Apr-12 08:30N 38°17' W 009°44'815.6
2018-Apr-12 08:01N 38°09' W 009°42'815.7
2018-Apr-12 07:30N 38°02' W 009°39'815.5
2018-Apr-12 07:01N 37°54' W 009°37'815.4
2018-Apr-12 06:31N 37°47' W 009°35'815.6
2018-Apr-12 06:00N 37°39' W 009°33'21513.9
2018-Apr-11 14:34N 35°58' W 005°36'114.6
2018-Apr-11 14:28N 35°58' W 005°35'714.6
2018-Apr-11 14:00N 35°60' W 005°27'714.8
2018-Apr-11 13:30N 36°01' W 005°18'21613.5
2018-Apr-10 21:34N 37°13' W 001°04'116.2
2018-Apr-10 21:29N 37°14' W 001°03'816.1
2018-Apr-10 20:58N 37°19' W 000°55'716.0
2018-Apr-10 20:30N 37°24' W 000°48'815.4
2018-Apr-10 20:00N 37°29' W 000°41'815.7
2018-Apr-10 19:30N 37°35' W 000°33'815.7
2018-Apr-10 19:00N 37°41' W 000°28'1715.4
2018-Apr-10 17:54N 37°56' W 000°16'614.9
2018-Apr-10 17:30N 38°00' W 000°12'  

Dump ship's entire track history